sensor_id;sensor_type;location;lat;lon;timestamp;pressure;altitude;pressure_sealevel;temperature;humidity
51099;BME280;37146;48.210;16.234;2022-07-29T00:00:34;98729.75;;;18.37;100.00
51099;BME280;37146;48.210;16.234;2022-07-29T00:02:59;98729.44;;;18.30;100.00
51099;BME280;37146;48.210;16.234;2022-07-29T00:05:25;98737.88;;;18.37;100.00
51099;BME280;37146;48.210;16.234;2022-07-29T00:07:50;98734.56;;;18.23;100.00
51099;BME280;37146;48.210;16.234;2022-07-29T00:10:16;98728.84;;;18.17;100.00
51099;BME280;37146;48.210;16.234;2022-07-29T00:12:41;98735.97;;;18.18;100.00
51099;BME280;37146;48.210;16.234;2022-07-29T00:15:07;98733.38;;;18.16;100.00
51099;BME280;37146;48.210;16.234;2022-07-29T00:17:33;98726.00;;;18.18;100.00
51099;BME280;37146;48.210;16.234;2022-07-29T00:19:59;98724.28;;;18.17;100.00
51099;BME280;37146;48.210;16.234;2022-07-29T00:22:24;98727.38;;;18.13;100.00
51099;BME280;37146;48.210;16.234;2022-07-29T00:24:50;98726.47;;;18.02;100.00
51099;BME280;37146;48.210;16.234;2022-07-29T00:27:16;98722.19;;;18.00;100.00
51099;BME280;37146;48.210;16.234;2022-07-29T00:29:41;98718.34;;;18.02;100.00
51099;BME280;37146;48.210;16.234;2022-07-29T00:32:07;98718.00;;;17.96;100.00
51099;BME280;37146;48.210;16.234;2022-07-29T00:34:32;98721.84;;;17.93;100.00
51099;BME280;37146;48.210;16.234;2022-07-29T00:37:16;98720.72;;;17.96;100.00
51099;BME280;37146;48.210;16.234;2022-07-29T00:39:42;98719.88;;;17.95;100.00
51099;BME280;37146;48.210;16.234;2022-07-29T00:42:07;98718.41;;;17.91;100.00
51099;BME280;37146;48.210;16.234;2022-07-29T00:44:38;98715.56;;;17.92;100.00
51099;BME280;37146;48.210;16.234;2022-07-29T00:47:05;98718.16;;;17.94;100.00
51099;BME280;37146;48.210;16.234;2022-07-29T00:49:31;98723.97;;;17.89;100.00
51099;BME280;37146;48.210;16.234;2022-07-29T00:51:57;98712.09;;;17.81;100.00
51099;BME280;37146;48.210;16.234;2022-07-29T00:54:22;98716.38;;;17.83;100.00
51099;BME280;37146;48.210;16.234;2022-07-29T00:56:48;98720.34;;;17.79;100.00
51099;BME280;37146;48.210;16.234;2022-07-29T00:59:14;98719.13;;;17.72;100.00
51099;BME280;37146;48.210;16.234;2022-07-29T01:01:39;98710.22;;;17.81;100.00
51099;BME280;37146;48.210;16.234;2022-07-29T01:04:06;98714.06;;;17.78;100.00
51099;BME280;37146;48.210;16.234;2022-07-29T01:06:32;98693.56;;;17.76;100.00
51099;BME280;37146;48.210;16.234;2022-07-29T01:08:58;98698.97;;;17.76;100.00
51099;BME280;37146;48.210;16.234;2022-07-29T01:11:23;98707.22;;;17.74;100.00
51099;BME280;37146;48.210;16.234;2022-07-29T01:13:49;98700.09;;;17.73;100.00
51099;BME280;37146;48.210;16.234;2022-07-29T01:16:23;98703.31;;;17.67;100.00
51099;BME280;37146;48.210;16.234;2022-07-29T01:18:55;98703.56;;;17.64;100.00
51099;BME280;37146;48.210;16.234;2022-07-29T01:27:02;98708.78;;;17.56;100.00
51099;BME280;37146;48.210;16.234;2022-07-29T01:29:45;98708.94;;;17.54;100.00
51099;BME280;37146;48.210;16.234;2022-07-29T01:32:16;98712.28;;;17.46;100.00
51099;BME280;37146;48.210;16.234;2022-07-29T01:37:25;98709.69;;;17.24;100.00
51099;BME280;37146;48.210;16.234;2022-07-29T01:39:54;98706.00;;;17.25;100.00
51099;BME280;37146;48.210;16.234;2022-07-29T01:42:36;98714.84;;;17.27;100.00
51099;BME280;37146;48.210;16.234;2022-07-29T01:45:17;98705.41;;;17.21;100.00
51099;BME280;37146;48.210;16.234;2022-07-29T01:47:56;98708.28;;;17.08;100.00
51099;BME280;37146;48.210;16.234;2022-07-29T01:50:30;98711.69;;;17.10;100.00
51099;BME280;37146;48.210;16.234;2022-07-29T01:53:03;98717.81;;;17.12;100.00
51099;BME280;37146;48.210;16.234;2022-07-29T01:55:32;98709.47;;;17.15;100.00
51099;BME280;37146;48.210;16.234;2022-07-29T01:58:00;98708.75;;;17.13;100.00
51099;BME280;37146;48.210;16.234;2022-07-29T02:00:27;98717.09;;;17.10;100.00
51099;BME280;37146;48.210;16.234;2022-07-29T02:02:55;98719.59;;;17.02;100.00
51099;BME280;37146;48.210;16.234;2022-07-29T02:05:22;98716.16;;;16.89;100.00
51099;BME280;37146;48.210;16.234;2022-07-29T02:07:50;98716.53;;;16.95;100.00
51099;BME280;37146;48.210;16.234;2022-07-29T02:10:19;98714.81;;;16.94;100.00
51099;BME280;37146;48.210;16.234;2022-07-29T02:12:47;98719.22;;;16.95;100.00
51099;BME280;37146;48.210;16.234;2022-07-29T02:15:15;98716.53;;;16.95;100.00
51099;BME280;37146;48.210;16.234;2022-07-29T02:18:05;98716.28;;;16.87;100.00
51099;BME280;37146;48.210;16.234;2022-07-29T02:20:33;98725.50;;;16.84;100.00
51099;BME280;37146;48.210;16.234;2022-07-29T02:23:00;98726.50;;;16.83;100.00
51099;BME280;37146;48.210;16.234;2022-07-29T02:25:27;98719.75;;;16.78;100.00
51099;BME280;37146;48.210;16.234;2022-07-29T02:27:54;98723.91;;;16.70;100.00
51099;BME280;37146;48.210;16.234;2022-07-29T02:30:21;98725.56;;;16.62;100.00
51099;BME280;37146;48.210;16.234;2022-07-29T02:32:48;98728.03;;;16.53;100.00
51099;BME280;37146;48.210;16.234;2022-07-29T02:35:15;98722.34;;;16.57;100.00
51099;BME280;37146;48.210;16.234;2022-07-29T02:37:43;98720.38;;;16.59;100.00
51099;BME280;37146;48.210;16.234;2022-07-29T02:40:11;98728.63;;;16.57;100.00
51099;BME280;37146;48.210;16.234;2022-07-29T02:42:41;98717.44;;;16.62;100.00
51099;BME280;37146;48.210;16.234;2022-07-29T02:45:07;98722.34;;;16.57;100.00
51099;BME280;37146;48.210;16.234;2022-07-29T02:47:41;98715.72;;;16.61;100.00
51099;BME280;37146;48.210;16.234;2022-07-29T02:50:09;98713.66;;;16.53;100.00
51099;BME280;37146;48.210;16.234;2022-07-29T02:55:15;98708.63;;;16.48;100.00
51099;BME280;37146;48.210;16.234;2022-07-29T02:57:48;98719.28;;;16.38;100.00
51099;BME280;37146;48.210;16.234;2022-07-29T03:00:16;98712.56;;;16.33;100.00
51099;BME280;37146;48.210;16.234;2022-07-29T03:02:44;98712.56;;;16.33;100.00
51099;BME280;37146;48.210;16.234;2022-07-29T03:05:20;98715.00;;;16.25;100.00
51099;BME280;37146;48.210;16.234;2022-07-29T03:07:49;98715.75;;;16.15;100.00
51099;BME280;37146;48.210;16.234;2022-07-29T03:10:14;98708.63;;;16.26;100.00
51099;BME280;37146;48.210;16.234;2022-07-29T03:12:41;98716.22;;;16.32;100.00
51099;BME280;37146;48.210;16.234;2022-07-29T03:15:08;98722.50;;;16.21;100.00
51099;BME280;37146;48.210;16.234;2022-07-29T03:17:34;98714.88;;;16.26;100.00
51099;BME280;37146;48.210;16.234;2022-07-29T03:20:00;98716.97;;;16.11;100.00
51099;BME280;37146;48.210;16.234;2022-07-29T03:22:26;98720.03;;;16.06;100.00
51099;BME280;37146;48.210;16.234;2022-07-29T03:24:52;98726.78;;;16.01;100.00
51099;BME280;37146;48.210;16.234;2022-07-29T03:27:17;98720.31;;;16.03;100.00
51099;BME280;37146;48.210;16.234;2022-07-29T03:29:43;98718.97;;;16.09;100.00
51099;BME280;37146;48.210;16.234;2022-07-29T03:32:08;98714.78;;;16.05;100.00
51099;BME280;37146;48.210;16.234;2022-07-29T03:34:34;98716.50;;;16.06;100.00
51099;BME280;37146;48.210;16.234;2022-07-29T03:36:59;98711.84;;;15.97;100.00
51099;BME280;37146;48.210;16.234;2022-07-29T03:39:27;98707.28;;;16.08;100.00
51099;BME280;37146;48.210;16.234;2022-07-29T03:41:56;98707.66;;;16.15;100.00
51099;BME280;37146;48.210;16.234;2022-07-29T03:44:23;98708.50;;;16.16;100.00
51099;BME280;37146;48.210;16.234;2022-07-29T03:46:51;98713.66;;;16.07;100.00
51099;BME280;37146;48.210;16.234;2022-07-29T03:49:19;98709.84;;;15.99;100.00
51099;BME280;37146;48.210;16.234;2022-07-29T03:51:47;98707.16;;;15.99;100.00
51099;BME280;37146;48.210;16.234;2022-07-29T03:54:12;98703.25;;;16.03;100.00
51099;BME280;37146;48.210;16.234;2022-07-29T03:56:42;98709.13;;;16.08;100.00
51099;BME280;37146;48.210;16.234;2022-07-29T03:59:10;98710.50;;;16.02;100.00
51099;BME280;37146;48.210;16.234;2022-07-29T04:01:37;98710.09;;;15.96;100.00
51099;BME280;37146;48.210;16.234;2022-07-29T04:04:04;98719.41;;;15.91;100.00
51099;BME280;37146;48.210;16.234;2022-07-29T04:06:38;98721.88;;;15.95;100.00
51099;BME280;37146;48.210;16.234;2022-07-29T04:09:03;98725.31;;;15.97;100.00
51099;BME280;37146;48.210;16.234;2022-07-29T04:11:29;98732.91;;;16.03;100.00
51099;BME280;37146;48.210;16.234;2022-07-29T04:13:54;98731.44;;;16.10;100.00
51099;BME280;37146;48.210;16.234;2022-07-29T04:16:20;98734.13;;;16.21;100.00
51099;BME280;37146;48.210;16.234;2022-07-29T04:18:45;98734.13;;;16.21;100.00
51099;BME280;37146;48.210;16.234;2022-07-29T04:21:10;98731.22;;;16.25;100.00
51099;BME280;37146;48.210;16.234;2022-07-29T04:23:36;98730.47;;;16.22;100.00
51099;BME280;37146;48.210;16.234;2022-07-29T04:26:01;98724.59;;;16.17;100.00
51099;BME280;37146;48.210;16.234;2022-07-29T04:28:26;98727.06;;;16.20;100.00
51099;BME280;37146;48.210;16.234;2022-07-29T04:30:52;98730.22;;;16.14;100.00
51099;BME280;37146;48.210;16.234;2022-07-29T04:33:17;98726.31;;;16.18;100.00
51099;BME280;37146;48.210;16.234;2022-07-29T04:35:43;98733.16;;;16.22;100.00
51099;BME280;37146;48.210;16.234;2022-07-29T04:38:08;98735.13;;;16.32;100.00
51099;BME280;37146;48.210;16.234;2022-07-29T04:40:33;98735.25;;;16.30;100.00
51099;BME280;37146;48.210;16.234;2022-07-29T04:43:00;98741.75;;;16.39;100.00
51099;BME280;37146;48.210;16.234;2022-07-29T04:45:26;98751.94;;;16.47;100.00
51099;BME280;37146;48.210;16.234;2022-07-29T04:47:51;98756.72;;;16.54;100.00
51099;BME280;37146;48.210;16.234;2022-07-29T04:50:17;98751.44;;;16.64;100.00
51099;BME280;37146;48.210;16.234;2022-07-29T04:52:42;98753.53;;;16.72;100.00
51099;BME280;37146;48.210;16.234;2022-07-29T04:55:08;98757.44;;;16.79;100.00
51099;BME280;37146;48.210;16.234;2022-07-29T04:57:34;98759.13;;;16.80;100.00
51099;BME280;37146;48.210;16.234;2022-07-29T05:00:00;98759.13;;;16.92;100.00
51099;BME280;37146;48.210;16.234;2022-07-29T05:02:25;98767.22;;;17.03;100.00
51099;BME280;37146;48.210;16.234;2022-07-29T05:04:51;98762.78;;;17.13;100.00
51099;BME280;37146;48.210;16.234;2022-07-29T05:07:16;98760.28;;;17.22;100.00
51099;BME280;37146;48.210;16.234;2022-07-29T05:09:42;98759.81;;;17.28;100.00
51099;BME280;37146;48.210;16.234;2022-07-29T05:12:07;98764.44;;;17.37;100.00
51099;BME280;37146;48.210;16.234;2022-07-29T05:14:33;98762.53;;;17.49;100.00
51099;BME280;37146;48.210;16.234;2022-07-29T05:16:58;98758.34;;;17.56;100.00
51099;BME280;37146;48.210;16.234;2022-07-29T05:19:23;98757.41;;;17.67;100.00
51099;BME280;37146;48.210;16.234;2022-07-29T05:21:49;98748.50;;;17.76;100.00
51099;BME280;37146;48.210;16.234;2022-07-29T05:24:15;98761.09;;;17.87;100.00
51099;BME280;37146;48.210;16.234;2022-07-29T05:26:40;98756.03;;;17.94;100.00
51099;BME280;37146;48.210;16.234;2022-07-29T05:29:05;98756.97;;;18.04;100.00
51099;BME280;37146;48.210;16.234;2022-07-29T05:31:31;98757.63;;;18.18;100.00
51099;BME280;37146;48.210;16.234;2022-07-29T05:33:56;98766.91;;;18.25;100.00
51099;BME280;37146;48.210;16.234;2022-07-29T05:36:22;98765.09;;;18.35;99.02
51099;BME280;37146;48.210;16.234;2022-07-29T05:38:47;98769.53;;;18.36;98.01
51099;BME280;37146;48.210;16.234;2022-07-29T05:41:12;98777.72;;;18.46;97.29
51099;BME280;37146;48.210;16.234;2022-07-29T05:43:38;98775.59;;;18.60;96.24
51099;BME280;37146;48.210;16.234;2022-07-29T05:46:03;98768.69;;;18.77;95.67
51099;BME280;37146;48.210;16.234;2022-07-29T05:48:29;98775.44;;;18.92;97.36
51099;BME280;37146;48.210;16.234;2022-07-29T05:50:54;98766.22;;;19.14;96.79
51099;BME280;37146;48.210;16.234;2022-07-29T05:53:19;98773.97;;;19.39;96.02
51099;BME280;37146;48.210;16.234;2022-07-29T05:55:45;98783.69;;;19.61;93.27
51099;BME280;37146;48.210;16.234;2022-07-29T05:58:10;98770.69;;;19.65;92.67
51099;BME280;37146;48.210;16.234;2022-07-29T06:00:35;98766.69;;;19.78;93.66
51099;BME280;37146;48.210;16.234;2022-07-29T06:03:01;98767.53;;;19.79;90.17
51099;BME280;37146;48.210;16.234;2022-07-29T06:05:26;98766.53;;;20.00;88.85
51099;BME280;37146;48.210;16.234;2022-07-29T06:07:52;98769.81;;;20.13;85.74
51099;BME280;37146;48.210;16.234;2022-07-29T06:10:18;98773.94;;;20.17;87.69
51099;BME280;37146;48.210;16.234;2022-07-29T06:12:44;98785.91;;;20.24;86.03
51099;BME280;37146;48.210;16.234;2022-07-29T06:15:09;98776.47;;;20.29;85.60
51099;BME280;37146;48.210;16.234;2022-07-29T06:17:35;98778.34;;;20.28;86.44
51099;BME280;37146;48.210;16.234;2022-07-29T06:20:01;98774.72;;;20.37;86.74
51099;BME280;37146;48.210;16.234;2022-07-29T06:22:26;98776.41;;;20.48;84.53
51099;BME280;37146;48.210;16.234;2022-07-29T06:24:52;98772.38;;;20.52;86.99
51099;BME280;37146;48.210;16.234;2022-07-29T06:27:17;98773.19;;;20.63;86.11
51099;BME280;37146;48.210;16.234;2022-07-29T06:29:43;98768.88;;;20.70;87.60
51099;BME280;37146;48.210;16.234;2022-07-29T06:32:08;98770.03;;;20.77;88.87
51099;BME280;37146;48.210;16.234;2022-07-29T06:34:35;98774.16;;;20.81;88.11
51099;BME280;37146;48.210;16.234;2022-07-29T06:37:00;98773.44;;;20.79;85.30
51099;BME280;37146;48.210;16.234;2022-07-29T06:39:27;98770.03;;;20.77;86.09
51099;BME280;37146;48.210;16.234;2022-07-29T06:41:53;98777.88;;;20.70;85.16
51099;BME280;37146;48.210;16.234;2022-07-29T06:44:19;98782.31;;;20.72;85.88
51099;BME280;37146;48.210;16.234;2022-07-29T06:46:44;98792.34;;;20.71;87.06
51099;BME280;37146;48.210;16.234;2022-07-29T06:49:09;98789.75;;;20.69;87.11
51099;BME280;37146;48.210;16.234;2022-07-29T06:51:35;98793.47;;;20.68;86.79
51099;BME280;37146;48.210;16.234;2022-07-29T06:54:01;98798.91;;;20.68;86.47
51099;BME280;37146;48.210;16.234;2022-07-29T06:56:27;98807.38;;;20.65;84.41
51099;BME280;37146;48.210;16.234;2022-07-29T06:58:52;98808.22;;;20.66;84.46
51099;BME280;37146;48.210;16.234;2022-07-29T07:01:18;98810.94;;;20.66;86.08
51099;BME280;37146;48.210;16.234;2022-07-29T07:03:43;98801.19;;;20.73;86.35
51099;BME280;37146;48.210;16.234;2022-07-29T07:06:09;98815.22;;;20.78;87.19
51099;BME280;37146;48.210;16.234;2022-07-29T07:08:34;98808.50;;;20.82;86.61
51099;BME280;37146;48.210;16.234;2022-07-29T07:10:59;98810.31;;;20.92;87.98
51099;BME280;37146;48.210;16.234;2022-07-29T07:13:25;98798.50;;;21.01;83.63
51099;BME280;37146;48.210;16.234;2022-07-29T07:15:51;98809.34;;;21.11;83.01
51099;BME280;37146;48.210;16.234;2022-07-29T07:18:17;98802.19;;;21.28;84.25
51099;BME280;37146;48.210;16.234;2022-07-29T07:20:43;98801.69;;;21.42;84.42
51099;BME280;37146;48.210;16.234;2022-07-29T07:23:09;98804.88;;;21.56;80.47
51099;BME280;37146;48.210;16.234;2022-07-29T07:25:35;98800.94;;;21.68;81.09
51099;BME280;37146;48.210;16.234;2022-07-29T07:28:00;98801.16;;;21.93;79.98
51099;BME280;37146;48.210;16.234;2022-07-29T07:30:26;98804.00;;;22.09;77.50
51099;BME280;37146;48.210;16.234;2022-07-29T07:32:52;98807.97;;;22.15;75.27
51099;BME280;37146;48.210;16.234;2022-07-29T07:35:47;98813.97;;;22.01;75.27
51099;BME280;37146;48.210;16.234;2022-07-29T07:38:12;98824.00;;;22.18;75.35
51099;BME280;37146;48.210;16.234;2022-07-29T07:40:38;98816.41;;;22.30;78.17
51099;BME280;37146;48.210;16.234;2022-07-29T07:43:03;98818.78;;;22.25;75.52
51099;BME280;37146;48.210;16.234;2022-07-29T07:45:29;98823.41;;;22.33;74.61
51099;BME280;37146;48.210;16.234;2022-07-29T07:47:54;98810.09;;;22.48;76.70
51099;BME280;37146;48.210;16.234;2022-07-29T07:50:20;98814.13;;;22.70;73.90
51099;BME280;37146;48.210;16.234;2022-07-29T07:52:55;98808.19;;;22.75;71.65
51099;BME280;37146;48.210;16.234;2022-07-29T07:55:24;98814.78;;;22.98;73.05
51099;BME280;37146;48.210;16.234;2022-07-29T07:57:50;98819.09;;;23.09;69.34
51099;BME280;37146;48.210;16.234;2022-07-29T08:00:16;98822.22;;;23.23;69.03
51099;BME280;37146;48.210;16.234;2022-07-29T08:02:42;98826.22;;;23.45;67.41
51099;BME280;37146;48.210;16.234;2022-07-29T08:05:08;98832.91;;;23.67;65.82
51099;BME280;37146;48.210;16.234;2022-07-29T08:07:34;98834.78;;;23.58;63.40
51099;BME280;37146;48.210;16.234;2022-07-29T08:09:59;98827.09;;;23.62;66.02
51099;BME280;37146;48.210;16.234;2022-07-29T08:12:25;98829.31;;;23.67;67.30
51099;BME280;37146;48.210;16.234;2022-07-29T08:14:50;98836.66;;;23.66;65.45
51099;BME280;37146;48.210;16.234;2022-07-29T08:17:16;98831.38;;;23.65;68.25
51099;BME280;37146;48.210;16.234;2022-07-29T08:19:41;98833.47;;;24.12;67.38
51099;BME280;37146;48.210;16.234;2022-07-29T08:22:07;98823.88;;;24.41;66.92
51099;BME280;37146;48.210;16.234;2022-07-29T08:24:32;98826.59;;;24.49;61.49
51099;BME280;37146;48.210;16.234;2022-07-29T08:27:33;98816.31;;;24.60;62.93
51099;BME280;37146;48.210;16.234;2022-07-29T08:29:59;98820.25;;;24.74;62.89
51099;BME280;37146;48.210;16.234;2022-07-29T08:32:24;98813.66;;;24.99;62.53
51099;BME280;37146;48.210;16.234;2022-07-29T08:34:49;98818.19;;;25.15;63.67
51099;BME280;37146;48.210;16.234;2022-07-29T08:37:15;98819.75;;;25.50;62.48
51099;BME280;37146;48.210;16.234;2022-07-29T08:39:40;98821.25;;;25.84;60.75
51099;BME280;37146;48.210;16.234;2022-07-29T08:42:06;98819.06;;;25.79;58.86
51099;BME280;37146;48.210;16.234;2022-07-29T08:44:32;98811.75;;;25.71;57.93
51099;BME280;37146;48.210;16.234;2022-07-29T08:46:58;98814.06;;;25.59;59.35
51099;BME280;37146;48.210;16.234;2022-07-29T08:49:23;98820.84;;;25.40;59.77
51099;BME280;37146;48.210;16.234;2022-07-29T08:51:49;98821.84;;;25.71;58.30
51099;BME280;37146;48.210;16.234;2022-07-29T08:54:17;98818.69;;;25.82;58.17
51099;BME280;37146;48.210;16.234;2022-07-29T08:56:43;98812.94;;;25.92;59.35
51099;BME280;37146;48.210;16.234;2022-07-29T08:59:10;98819.28;;;26.16;58.38
51099;BME280;37146;48.210;16.234;2022-07-29T09:01:37;98822.19;;;26.37;57.92
51099;BME280;37146;48.210;16.234;2022-07-29T09:04:06;98823.16;;;26.45;56.79
51099;BME280;37146;48.210;16.234;2022-07-29T09:06:37;98825.81;;;26.68;55.75
51099;BME280;37146;48.210;16.234;2022-07-29T09:09:04;98826.78;;;26.90;54.73
51099;BME280;37146;48.210;16.234;2022-07-29T09:11:32;98826.72;;;26.83;55.19
51099;BME280;37146;48.210;16.234;2022-07-29T09:13:57;98819.63;;;26.89;55.12
51099;BME280;37146;48.210;16.234;2022-07-29T09:16:22;98810.97;;;26.77;55.31
51099;BME280;37146;48.210;16.234;2022-07-29T09:18:48;98808.88;;;26.64;55.25
51099;BME280;37146;48.210;16.234;2022-07-29T09:21:15;98809.69;;;26.35;55.30
51099;BME280;37146;48.210;16.234;2022-07-29T09:24:11;98802.53;;;26.49;56.28
51099;BME280;37146;48.210;16.234;2022-07-29T09:26:42;98806.69;;;26.45;55.53
51099;BME280;37146;48.210;16.234;2022-07-29T09:29:09;98810.41;;;26.14;55.88
51099;BME280;37146;48.210;16.234;2022-07-29T09:31:38;98814.41;;;26.03;56.44
51099;BME280;37146;48.210;16.234;2022-07-29T09:34:04;98804.84;;;25.99;57.13
51099;BME280;37146;48.210;16.234;2022-07-29T09:36:30;98810.63;;;25.81;56.47
51099;BME280;37146;48.210;16.234;2022-07-29T09:38:59;98820.03;;;25.63;56.96
51099;BME280;37146;48.210;16.234;2022-07-29T09:41:27;98828.19;;;25.40;57.89
51099;BME280;37146;48.210;16.234;2022-07-29T09:43:56;98818.13;;;25.32;57.92
51099;BME280;37146;48.210;16.234;2022-07-29T09:46:21;98821.53;;;25.34;59.10
51099;BME280;37146;48.210;16.234;2022-07-29T09:49:05;98815.63;;;25.54;60.23
51099;BME280;37146;48.210;16.234;2022-07-29T09:51:31;98815.47;;;25.78;59.08
51099;BME280;37146;48.210;16.234;2022-07-29T09:53:56;98805.84;;;25.83;58.84
51099;BME280;37146;48.210;16.234;2022-07-29T09:56:41;98804.97;;;26.05;58.87
51099;BME280;37146;48.210;16.234;2022-07-29T09:59:08;98804.56;;;26.17;56.97
51099;BME280;37146;48.210;16.234;2022-07-29T10:01:34;98799.94;;;26.17;56.90
51099;BME280;37146;48.210;16.234;2022-07-29T10:04:01;98790.50;;;26.35;56.91
51099;BME280;37146;48.210;16.234;2022-07-29T10:06:26;98794.19;;;26.57;56.75
51099;BME280;37146;48.210;16.234;2022-07-29T10:08:52;98794.13;;;26.65;55.33
51099;BME280;37146;48.210;16.234;2022-07-29T10:11:18;98795.06;;;26.58;55.64
51099;BME280;37146;48.210;16.234;2022-07-29T10:13:47;98791.19;;;26.67;55.15
51099;BME280;37146;48.210;16.234;2022-07-29T10:16:15;98793.72;;;26.68;55.01
51099;BME280;37146;48.210;16.234;2022-07-29T10:18:42;98791.78;;;26.92;55.29
51099;BME280;37146;48.210;16.234;2022-07-29T10:21:08;98791.25;;;27.19;54.96
51099;BME280;37146;48.210;16.234;2022-07-29T10:23:35;98795.84;;;27.48;53.79
51099;BME280;37146;48.210;16.234;2022-07-29T10:26:02;98783.69;;;27.57;52.08
51099;BME280;37146;48.210;16.234;2022-07-29T10:28:30;98784.47;;;27.51;53.09
51099;BME280;37146;48.210;16.234;2022-07-29T10:31:00;98775.06;;;27.82;54.22
51099;BME280;37146;48.210;16.234;2022-07-29T10:38:48;98781.22;;;27.84;51.94
51099;BME280;37146;48.210;16.234;2022-07-29T10:41:39;98783.50;;;27.59;51.64
51099;BME280;37146;48.210;16.234;2022-07-29T10:44:21;98780.25;;;27.34;52.34
51099;BME280;37146;48.210;16.234;2022-07-29T10:46:48;98773.19;;;27.09;52.69
51099;BME280;37146;48.210;16.234;2022-07-29T10:49:15;98784.13;;;26.88;53.67
51099;BME280;37146;48.210;16.234;2022-07-29T10:54:36;98772.09;;;26.74;54.00
51099;BME280;37146;48.210;16.234;2022-07-29T10:57:13;98764.44;;;26.69;54.27
51099;BME280;37146;48.210;16.234;2022-07-29T10:59:39;98757.53;;;26.73;55.01
51099;BME280;37146;48.210;16.234;2022-07-29T11:05:02;98753.53;;;27.64;53.95
51099;BME280;37146;48.210;16.234;2022-07-29T11:07:29;98759.38;;;27.54;52.66
51099;BME280;37146;48.210;16.234;2022-07-29T11:10:21;98752.56;;;27.72;51.91
51099;BME280;37146;48.210;16.234;2022-07-29T11:12:47;98741.75;;;27.92;51.98
51099;BME280;37146;48.210;16.234;2022-07-29T11:15:18;98743.28;;;27.73;51.53
51099;BME280;37146;48.210;16.234;2022-07-29T11:20:39;98739.25;;;27.32;52.69
51099;BME280;37146;48.210;16.234;2022-07-29T11:23:26;98746.03;;;27.14;53.96
51099;BME280;37146;48.210;16.234;2022-07-29T11:28:50;98734.09;;;27.07;54.80
51099;BME280;37146;48.210;16.234;2022-07-29T11:31:42;98736.19;;;27.20;54.16
51099;BME280;37146;48.210;16.234;2022-07-29T11:34:26;98742.44;;;27.36;55.19
51099;BME280;37146;48.210;16.234;2022-07-29T11:39:38;98736.88;;;27.66;53.90
51099;BME280;37146;48.210;16.234;2022-07-29T11:45:02;98734.94;;;28.38;51.59
51099;BME280;37146;48.210;16.234;2022-07-29T11:47:36;98725.97;;;29.06;50.13
51099;BME280;37146;48.210;16.234;2022-07-29T11:50:04;98722.31;;;29.54;48.85
51099;BME280;37146;48.210;16.234;2022-07-29T11:52:40;98711.72;;;29.71;48.58
51099;BME280;37146;48.210;16.234;2022-07-29T11:55:15;98710.22;;;29.62;48.17
51099;BME280;37146;48.210;16.234;2022-07-29T11:57:55;98714.13;;;29.12;48.62
51099;BME280;37146;48.210;16.234;2022-07-29T12:02:48;98700.63;;;29.31;48.16
51099;BME280;37146;48.210;16.234;2022-07-29T12:05:13;98697.50;;;29.48;47.85
51099;BME280;37146;48.210;16.234;2022-07-29T12:07:39;98692.88;;;30.02;47.16
51099;BME280;37146;48.210;16.234;2022-07-29T12:10:05;98694.72;;;30.35;45.64
51099;BME280;37146;48.210;16.234;2022-07-29T12:12:32;98694.00;;;30.66;45.18
51099;BME280;37146;48.210;16.234;2022-07-29T12:14:57;98687.69;;;30.46;46.31
51099;BME280;37146;48.210;16.234;2022-07-29T12:17:33;98690.31;;;29.87;47.14
51099;BME280;37146;48.210;16.234;2022-07-29T12:20:01;98696.88;;;29.52;48.12
51099;BME280;37146;48.210;16.234;2022-07-29T12:22:30;98696.56;;;29.20;48.40
51099;BME280;37146;48.210;16.234;2022-07-29T12:25:02;98704.69;;;28.73;49.18
51099;BME280;37146;48.210;16.234;2022-07-29T12:27:28;98707.50;;;28.16;50.75
51099;BME280;37146;48.210;16.234;2022-07-29T12:29:58;98709.34;;;28.37;50.91
51099;BME280;37146;48.210;16.234;2022-07-29T12:32:30;98704.06;;;28.43;51.08
51099;BME280;37146;48.210;16.234;2022-07-29T12:34:56;98703.88;;;28.09;51.40
51099;BME280;37146;48.210;16.234;2022-07-29T12:37:21;98699.13;;;28.03;52.18
51099;BME280;37146;48.210;16.234;2022-07-29T12:39:47;98690.63;;;27.98;52.51
51099;BME280;37146;48.210;16.234;2022-07-29T12:42:14;98701.63;;;27.48;52.41
51099;BME280;37146;48.210;16.234;2022-07-29T12:44:59;98694.84;;;27.07;53.54
51099;BME280;37146;48.210;16.234;2022-07-29T12:47:24;98699.00;;;27.03;55.09
51099;BME280;37146;48.210;16.234;2022-07-29T12:49:51;98701.63;;;26.89;54.85
51099;BME280;37146;48.210;16.234;2022-07-29T12:52:34;98705.00;;;26.76;55.49
51099;BME280;37146;48.210;16.234;2022-07-29T12:54:59;98700.31;;;26.55;56.48
51099;BME280;37146;48.210;16.234;2022-07-29T12:57:26;98695.13;;;26.30;57.17
51099;BME280;37146;48.210;16.234;2022-07-29T13:00:09;98699.72;;;26.30;57.79
51099;BME280;37146;48.210;16.234;2022-07-29T13:02:37;98699.09;;;26.13;58.61
51099;BME280;37146;48.210;16.234;2022-07-29T13:05:03;98694.66;;;25.88;59.59
51099;BME280;37146;48.210;16.234;2022-07-29T13:07:31;98701.34;;;25.71;59.57
51099;BME280;37146;48.210;16.234;2022-07-29T13:10:18;98698.78;;;25.69;60.52
51099;BME280;37146;48.210;16.234;2022-07-29T13:13:06;98699.53;;;25.63;60.87
51099;BME280;37146;48.210;16.234;2022-07-29T13:15:34;98696.75;;;25.48;63.54
51099;BME280;37146;48.210;16.234;2022-07-29T13:18:00;98711.53;;;25.30;64.50
51099;BME280;37146;48.210;16.234;2022-07-29T13:20:27;98702.91;;;25.19;65.88
51099;BME280;37146;48.210;16.234;2022-07-29T13:23:15;98716.19;;;24.98;66.72
51099;BME280;37146;48.210;16.234;2022-07-29T13:25:40;98713.41;;;24.75;68.31